Time;durP1;ratioP1;P1;durP2;ratioP2;P2;SDS_P1;SDS_P2;PMS_P1;PMS_P2;Temp;Humidity;BMP_temperature;BMP_pressure;BME280_temperature;BME280_humidity;BME280_pressure;Samples;Min_cycle;Max_cycle;Signal;HPM_P1;HPM_P2
2021/12/25 00:00:16;;;;;;;17.60;7.82;;;7.10;99.90;;;;;;5054539;28;20020;-82
2021/12/25 00:02:43;;;;;;;15.40;7.82;;;7.10;99.90;;;;;;5038806;28;20120;-82
2021/12/25 00:05:10;;;;;;;14.88;7.57;;;7.10;99.90;;;;;;5054335;28;20071;-82
2021/12/25 00:07:35;;;;;;;20.63;8.57;;;7.10;99.90;;;;;;4983172;28;1162601;-82
2021/12/25 00:10:03;;;;;;;22.75;8.38;;;7.10;99.90;;;;;;5022083;28;20099;-82
2021/12/25 00:12:30;;;;;;;15.90;7.38;;;7.10;99.90;;;;;;5058826;28;20544;-82
2021/12/25 00:14:55;;;;;;;15.45;6.95;;;7.10;99.90;;;;;;5039570;28;20033;-82
2021/12/25 00:17:21;;;;;;;15.82;6.95;;;7.10;99.90;;;;;;5022164;28;20032;-82
2021/12/25 00:19:47;;;;;;;14.73;7.25;;;7.00;99.90;;;;;;5038664;28;20038;-82
2021/12/25 00:22:12;;;;;;;16.35;6.97;;;7.10;99.90;;;;;;5039447;28;20111;-82
2021/12/25 00:24:43;;;;;;;15.68;6.75;;;7.10;99.90;;;;;;5021197;28;20072;-82
2021/12/25 00:27:35;;;;;;;15.88;7.68;;;7.00;99.90;;;;;;5005357;28;20404;-82
2021/12/25 00:35:09;;;;;;;18.52;7.43;;;7.00;99.90;;;;;;5041341;28;20036;-82
2021/12/25 00:37:38;;;;;;;15.00;7.15;;;7.10;99.90;;;;;;5019178;28;20036;-81
2021/12/25 00:40:05;;;;;;;17.15;6.85;;;7.00;99.90;;;;;;5012508;28;20128;-82
2021/12/25 00:42:31;;;;;;;20.00;7.43;;;7.10;99.90;;;;;;5027694;28;20648;-82
2021/12/25 00:44:57;;;;;;;16.33;6.93;;;7.10;99.90;;;;;;5037935;28;20115;-82
2021/12/25 00:47:23;;;;;;;13.27;6.47;;;7.00;99.90;;;;;;5022521;28;20028;-81
2021/12/25 00:49:49;;;;;;;14.95;6.82;;;7.00;99.90;;;;;;5026942;28;20030;-81
2021/12/25 00:52:14;;;;;;;20.88;7.32;;;7.10;99.90;;;;;;5018091;28;20032;-81
2021/12/25 00:54:41;;;;;;;15.80;7.68;;;7.00;99.90;;;;;;5056162;28;20123;-81
2021/12/25 00:57:06;;;;;;;16.02;7.43;;;7.00;99.90;;;;;;5037165;28;20078;-82
2021/12/25 00:59:32;;;;;;;16.65;7.32;;;7.00;99.90;;;;;;5029248;28;20033;-81
2021/12/25 01:01:58;;;;;;;16.73;6.68;;;7.00;99.90;;;;;;5033670;28;20077;-82
2021/12/25 01:04:25;;;;;;;17.40;7.65;;;7.00;99.90;;;;;;5017117;28;20443;-81
2021/12/25 01:06:51;;;;;;;16.02;6.88;;;7.00;99.90;;;;;;4998597;28;20449;-82
2021/12/25 01:09:17;;;;;;;19.15;7.63;;;7.10;99.90;;;;;;5023651;28;20059;-82
2021/12/25 01:11:46;;;;;;;15.95;8.13;;;7.00;99.90;;;;;;5040694;28;20033;-82
2021/12/25 01:14:31;;;;;;;19.30;8.20;;;7.00;99.90;;;;;;5018575;28;20041;-82
2021/12/25 01:19:53;;;;;;;22.05;8.60;;;7.00;99.90;;;;;;5042661;28;20051;-82
2021/12/25 01:48:37;;;;;;;15.32;6.28;;;7.00;99.90;;;;;;5041091;28;20067;-81
2021/12/25 01:51:04;;;;;;;15.15;6.97;;;7.00;99.90;;;;;;5052955;28;20455;-81
2021/12/25 01:53:29;;;;;;;14.85;6.20;;;7.00;99.90;;;;;;5043827;28;20030;-82
2021/12/25 01:55:57;;;;;;;17.35;6.88;;;7.00;99.90;;;;;;5033634;28;20075;-82
2021/12/25 01:58:26;;;;;;;12.18;5.57;;;7.00;99.90;;;;;;5018106;28;20060;-81
2021/12/25 02:00:55;;;;;;;14.77;6.63;;;7.00;99.90;;;;;;5034431;28;20389;-82
2021/12/25 02:03:23;;;;;;;13.23;5.97;;;7.00;99.90;;;;;;5037834;28;20445;-81
2021/12/25 02:05:49;;;;;;;13.38;6.57;;;7.10;99.90;;;;;;5038131;28;20032;-82
2021/12/25 02:08:16;;;;;;;14.60;6.18;;;7.00;99.90;;;;;;5022855;28;20132;-81
2021/12/25 02:10:42;;;;;;;13.20;5.88;;;7.00;99.90;;;;;;5015630;28;20040;-81
2021/12/25 02:13:12;;;;;;;16.13;6.20;;;7.00;99.90;;;;;;5036385;28;20116;-81
2021/12/25 02:15:44;;;;;;;13.50;6.15;;;7.00;99.90;;;;;;5034305;28;20395;-81
2021/12/25 02:18:15;;;;;;;12.48;5.75;;;7.00;99.90;;;;;;5035561;28;20638;-82
2021/12/25 02:20:52;;;;;;;11.85;5.47;;;7.00;99.90;;;;;;5032827;28;20376;-81
2021/12/25 02:23:21;;;;;;;14.23;5.97;;;7.00;99.90;;;;;;5039199;28;20051;-81
2021/12/25 02:25:49;;;;;;;12.95;5.57;;;7.00;99.90;;;;;;5044180;28;20029;-82
2021/12/25 02:28:16;;;;;;;12.07;5.93;;;7.00;99.90;;;;;;5041280;28;20028;-81
2021/12/25 02:30:43;;;;;;;13.50;5.25;;;7.00;99.90;;;;;;5029073;28;20051;-82
2021/12/25 02:33:09;;;;;;;13.45;5.30;;;7.00;99.90;;;;;;5027751;28;20031;-82
2021/12/25 02:35:35;;;;;;;13.30;5.82;;;7.00;99.90;;;;;;5020841;28;20017;-80
2021/12/25 02:38:01;;;;;;;14.13;6.25;;;7.00;99.90;;;;;;5001989;28;20447;-82
2021/12/25 02:40:26;;;;;;;13.05;6.20;;;7.00;99.90;;;;;;5015101;28;20059;-82
2021/12/25 02:42:52;;;;;;;12.07;5.40;;;7.00;99.90;;;;;;5033755;28;20033;-82
2021/12/25 02:45:20;;;;;;;14.30;5.32;;;7.00;99.90;;;;;;5047318;28;20398;-82
2021/12/25 02:47:49;;;;;;;16.05;6.00;;;7.00;99.90;;;;;;5058027;28;20020;-81
2021/12/25 02:50:27;;;;;;;14.63;5.70;;;7.10;99.90;;;;;;5026209;28;20033;-82
2021/12/25 02:52:55;;;;;;;17.40;6.00;;;7.00;99.90;;;;;;5005663;28;20028;-81
2021/12/25 02:55:21;;;;;;;17.02;5.80;;;7.10;99.90;;;;;;5035937;28;20448;-82
2021/12/25 02:57:51;;;;;;;17.05;5.40;;;7.00;99.90;;;;;;5057073;28;20105;-81
2021/12/25 03:00:22;;;;;;;12.02;5.60;;;7.00;99.90;;;;;;5046157;28;20028;-82
2021/12/25 03:02:51;;;;;;;12.38;5.72;;;7.00;99.90;;;;;;5005632;28;20045;-82
2021/12/25 03:05:18;;;;;;;14.77;6.10;;;7.00;99.90;;;;;;5027624;28;20058;-82
2021/12/25 03:07:44;;;;;;;11.45;5.18;;;7.00;99.90;;;;;;5049834;28;20592;-81
2021/12/25 03:10:13;;;;;;;18.38;6.70;;;7.00;99.90;;;;;;5025881;28;20098;-82
2021/12/25 03:13:15;;;;;;;11.48;5.60;;;7.00;99.90;;;;;;5022916;28;20033;-81
2021/12/25 03:15:46;;;;;;;10.18;5.25;;;7.00;99.90;;;;;;5040864;28;20037;-82
2021/12/25 03:18:17;;;;;;;12.18;5.70;;;7.00;99.90;;;;;;5039591;28;20028;-81
2021/12/25 03:20:45;;;;;;;10.45;5.30;;;7.00;99.90;;;;;;5020298;28;20589;-82
2021/12/25 03:23:22;;;;;;;9.48;4.53;;;7.00;99.90;;;;;;5043653;28;20653;-82
2021/12/25 03:25:50;;;;;;;14.60;5.75;;;7.00;99.90;;;;;;5022610;28;20087;-82
2021/12/25 03:28:18;;;;;;;11.93;4.88;;;7.00;99.90;;;;;;5001179;28;20049;-82
2021/12/25 03:30:44;;;;;;;11.57;5.30;;;7.00;99.90;;;;;;5036352;28;20899;-82
2021/12/25 03:33:14;;;;;;;11.63;5.18;;;6.90;99.90;;;;;;5031650;28;20044;-81
2021/12/25 03:35:40;;;;;;;10.55;4.93;;;6.90;99.90;;;;;;5036791;28;20075;-82
2021/12/25 03:38:09;;;;;;;10.77;5.97;;;7.00;99.90;;;;;;5037507;28;20031;-82
2021/12/25 03:40:36;;;;;;;18.05;7.45;;;6.90;99.90;;;;;;5037286;28;20058;-82
2021/12/25 03:43:02;;;;;;;17.17;6.35;;;7.00;99.90;;;;;;5037832;28;20522;-82
2021/12/25 03:45:30;;;;;;;16.10;6.90;;;7.00;99.90;;;;;;5036392;28;20033;-82
2021/12/25 03:48:07;;;;;;;14.45;6.30;;;7.00;99.90;;;;;;5037141;28;20029;-82
2021/12/25 03:53:38;;;;;;;17.65;6.53;;;7.00;99.90;;;;;;5035896;28;20031;-82
2021/12/25 03:58:52;;;;;;;12.20;5.78;;;7.00;99.90;;;;;;5039311;28;20036;-81
2021/12/25 04:01:43;;;;;;;11.77;6.28;;;7.00;99.90;;;;;;5036785;28;20017;-82
2021/12/25 04:04:53;;;;;;;12.35;5.43;;;7.00;99.90;;;;;;5035628;28;20028;-82
2021/12/25 04:07:06;;;;;;;15.88;6.53;;;7.00;99.90;;;;;;5052271;28;20033;-82
2021/12/25 04:09:35;;;;;;;11.95;6.00;;;7.00;99.90;;;;;;5056231;28;20036;-82
2021/12/25 04:12:07;;;;;;;11.18;5.35;;;7.00;99.90;;;;;;5056826;28;20534;-82
2021/12/25 04:14:33;;;;;;;15.10;6.28;;;7.00;99.90;;;;;;5061149;23;20049;-85
2021/12/25 04:16:59;;;;;;;13.45;6.07;;;7.00;99.90;;;;;;5039049;28;20067;-85
2021/12/25 04:19:25;;;;;;;10.73;5.40;;;7.00;99.90;;;;;;5014825;28;20067;-86
2021/12/25 04:21:58;;;;;;;8.63;4.80;;;7.00;99.90;;;;;;5020897;28;20040;-85
2021/12/25 04:24:25;;;;;;;13.73;5.50;;;7.00;99.90;;;;;;5053216;28;20123;-85
2021/12/25 04:26:51;;;;;;;12.20;5.55;;;7.00;99.90;;;;;;5093748;28;20107;-84
2021/12/25 05:04:23;;;;;;;14.30;6.63;;;7.00;99.90;;;;;;5060968;28;20032;-84
2021/12/25 05:06:49;;;;;;;11.93;5.85;;;7.00;99.90;;;;;;5076982;28;20031;-87
2021/12/25 05:09:15;;;;;;;11.65;5.63;;;7.00;99.90;;;;;;5011194;28;20408;-88
2021/12/25 05:11:41;;;;;;;9.40;5.03;;;7.00;99.90;;;;;;5058590;28;20082;-86
2021/12/25 05:14:07;;;;;;;11.23;5.80;;;7.00;99.90;;;;;;5048167;28;20036;-85
2021/12/25 05:16:33;;;;;;;12.15;5.82;;;7.00;99.90;;;;;;5029682;28;20020;-87
2021/12/25 05:18:58;;;;;;;10.68;5.38;;;7.00;99.90;;;;;;5037244;28;20398;-86
2021/12/25 05:21:24;;;;;;;12.68;5.40;;;7.00;99.90;;;;;;5044798;28;20025;-86
2021/12/25 05:23:50;;;;;;;8.95;4.85;;;7.00;99.90;;;;;;5046211;28;20036;-87
2021/12/25 05:26:16;;;;;;;9.85;5.00;;;7.00;99.90;;;;;;5029319;28;20024;-85
2021/12/25 05:28:45;;;;;;;9.27;4.40;;;7.00;99.90;;;;;;5046370;28;20059;-85
2021/12/25 05:31:13;;;;;;;8.55;4.25;;;7.00;99.90;;;;;;5057820;28;20063;-86
2021/12/25 05:33:40;;;;;;;8.10;4.30;;;7.00;99.90;;;;;;5041584;28;20024;-85
2021/12/25 05:36:06;;;;;;;8.35;4.63;;;7.00;99.90;;;;;;5076954;28;20016;-86
2021/12/25 05:38:34;;;;;;;8.55;4.40;;;7.00;99.90;;;;;;5040570;28;20028;-85
2021/12/25 05:40:59;;;;;;;9.85;4.50;;;7.00;99.90;;;;;;5073114;28;20021;-84
2021/12/25 05:43:25;;;;;;;7.80;3.65;;;7.00;99.90;;;;;;5061145;28;20032;-85
2021/12/25 05:45:51;;;;;;;8.57;4.30;;;7.00;99.90;;;;;;5036688;28;20124;-86
2021/12/25 05:48:17;;;;;;;10.13;3.97;;;7.00;99.90;;;;;;5033313;28;20033;-84
2021/12/25 05:50:42;;;;;;;6.20;3.60;;;7.00;99.90;;;;;;5034263;28;20031;-84
2021/12/25 05:53:08;;;;;;;5.25;3.53;;;7.00;99.90;;;;;;5006143;28;20170;-86
2021/12/25 05:55:34;;;;;;;8.55;4.03;;;7.00;99.90;;;;;;5063846;28;20028;-85
2021/12/25 05:58:03;;;;;;;7.97;3.80;;;7.00;99.90;;;;;;5060643;28;20020;-85
2021/12/25 06:00:30;;;;;;;7.82;4.05;;;7.00;99.90;;;;;;5061407;28;20101;-85
2021/12/25 06:02:56;;;;;;;7.60;3.88;;;7.00;99.90;;;;;;5054332;28;20114;-85
2021/12/25 06:05:23;;;;;;;7.75;3.38;;;7.00;99.90;;;;;;5056396;28;20492;-84
2021/12/25 06:07:49;;;;;;;8.68;4.38;;;7.00;99.90;;;;;;5044635;28;20033;-86
2021/12/25 06:10:18;;;;;;;6.68;3.58;;;7.00;99.90;;;;;;5057994;28;20274;-85
2021/12/25 06:12:47;;;;;;;9.27;4.55;;;7.00;99.90;;;;;;5040494;28;20468;-85
2021/12/25 06:15:14;;;;;;;9.75;4.40;;;7.00;99.90;;;;;;5042300;28;20032;-84
2021/12/25 06:17:40;;;;;;;9.00;4.65;;;6.90;99.90;;;;;;5076234;28;20036;-84
2021/12/25 06:20:07;;;;;;;8.43;4.40;;;7.00;99.90;;;;;;5042795;28;20052;-85
2021/12/25 06:22:36;;;;;;;9.60;4.78;;;7.00;99.90;;;;;;5022468;28;20036;-85
2021/12/25 06:25:02;;;;;;;9.38;4.70;;;7.00;99.90;;;;;;5021998;28;20029;-86
2021/12/25 06:27:28;;;;;;;7.60;3.95;;;7.00;99.90;;;;;;5050120;28;20058;-85
2021/12/25 06:29:54;;;;;;;8.90;4.50;;;7.00;99.90;;;;;;5027490;28;20037;-85
2021/12/25 06:32:20;;;;;;;11.15;5.93;;;7.00;99.90;;;;;;5076959;28;20020;-85
2021/12/25 06:34:45;;;;;;;10.27;4.45;;;7.00;99.90;;;;;;5038600;28;20110;-85
2021/12/25 06:37:11;;;;;;;7.72;4.45;;;7.00;99.90;;;;;;5031177;28;20047;-85
2021/12/25 06:39:39;;;;;;;10.73;4.85;;;7.00;99.90;;;;;;5039671;28;20489;-86
2021/12/25 06:42:06;;;;;;;12.75;5.65;;;7.00;99.90;;;;;;5072037;28;20039;-85
2021/12/25 06:44:31;;;;;;;10.32;4.85;;;7.00;99.90;;;;;;5071465;28;20106;-84
2021/12/25 06:46:58;;;;;;;13.30;5.03;;;7.00;99.90;;;;;;5059301;28;20032;-86
2021/12/25 06:49:24;;;;;;;9.73;5.53;;;7.00;99.90;;;;;;5057724;28;20493;-86
2021/12/25 06:51:51;;;;;;;10.57;5.10;;;7.00;99.90;;;;;;5049499;28;20039;-85
2021/12/25 06:54:17;;;;;;;11.63;5.40;;;7.00;99.90;;;;;;5043640;28;20024;-87
2021/12/25 06:56:47;;;;;;;14.00;5.95;;;7.00;99.90;;;;;;5055719;28;20642;-86
2021/12/25 06:59:13;;;;;;;14.05;7.00;;;7.00;99.90;;;;;;5048090;28;20298;-85
2021/12/25 07:01:39;;;;;;;14.20;7.00;;;7.00;99.90;;;;;;5076707;28;20039;-87
2021/12/25 07:04:07;;;;;;;15.20;7.47;;;7.00;99.90;;;;;;5053831;28;20170;-85
2021/12/25 07:06:33;;;;;;;24.27;7.78;;;7.00;99.90;;;;;;5040249;28;20033;-86
2021/12/25 07:09:02;;;;;;;19.67;8.38;;;7.10;99.90;;;;;;5060230;28;20062;-86
2021/12/25 07:11:28;;;;;;;22.45;9.10;;;7.10;99.90;;;;;;5046376;28;20746;-85
2021/12/25 07:13:53;;;;;;;21.80;8.73;;;7.10;99.90;;;;;;5052444;28;20029;-85
2021/12/25 07:16:19;;;;;;;26.58;8.82;;;7.10;99.90;;;;;;5041726;28;20052;-85
2021/12/25 07:18:45;;;;;;;23.17;9.15;;;7.10;99.90;;;;;;5035869;28;20032;-86
2021/12/25 07:21:11;;;;;;;26.58;10.55;;;7.10;99.90;;;;;;5071708;28;20437;-86
2021/12/25 07:23:37;;;;;;;28.58;10.73;;;7.10;99.90;;;;;;5040553;28;20032;-87
2021/12/25 07:26:05;;;;;;;27.17;9.82;;;7.10;99.90;;;;;;5080096;28;20036;-87
2021/12/25 07:28:31;;;;;;;28.55;10.25;;;7.10;99.90;;;;;;5036630;28;20045;-86
2021/12/25 07:31:00;;;;;;;25.77;9.57;;;7.20;99.90;;;;;;5032247;28;20037;-87
2021/12/25 07:33:27;;;;;;;28.85;11.43;;;7.10;99.90;;;;;;5050693;28;20039;-88
2021/12/25 07:35:53;;;;;;;28.38;9.80;;;7.10;99.90;;;;;;5070184;28;20044;-86
2021/12/25 07:38:20;;;;;;;25.67;9.70;;;7.10;99.90;;;;;;5052306;28;20029;-86
2021/12/25 07:40:46;;;;;;;28.92;9.60;;;7.10;99.90;;;;;;5061175;28;20419;-86
2021/12/25 07:43:11;;;;;;;27.10;10.45;;;7.20;99.90;;;;;;5024062;28;20099;-86
2021/12/25 07:45:37;;;;;;;28.30;10.95;;;7.20;99.90;;;;;;5051464;28;20033;-87
2021/12/25 07:48:03;;;;;;;30.77;11.45;;;7.20;99.90;;;;;;5050979;28;20032;-86
2021/12/25 07:50:34;;;;;;;33.17;11.52;;;7.20;99.90;;;;;;5055531;28;20067;-86
2021/12/25 07:53:01;;;;;;;32.05;12.02;;;7.20;99.90;;;;;;5074171;28;20439;-87
2021/12/25 07:55:32;;;;;;;30.17;10.98;;;7.20;99.90;;;;;;5053835;28;20180;-87
2021/12/25 07:58:00;;;;;;;22.05;9.40;;;7.20;99.90;;;;;;5029456;28;20051;-87
2021/12/25 08:00:26;;;;;;;27.90;10.95;;;7.30;99.90;;;;;;5044289;28;20535;-87
2021/12/25 08:02:53;;;;;;;27.98;11.60;;;7.30;99.90;;;;;;5062556;28;20107;-87
2021/12/25 08:05:19;;;;;;;29.88;10.48;;;7.30;99.90;;;;;;5039612;28;20047;-87
2021/12/25 08:07:44;;;;;;;29.60;10.68;;;7.30;99.90;;;;;;5062779;28;20492;-87
2021/12/25 08:10:14;;;;;;;27.80;10.43;;;7.30;99.90;;;;;;5051981;28;20028;-88
2021/12/25 08:13:02;;;;;;;30.15;10.82;;;7.40;99.90;;;;;;5029330;28;20039;-88
2021/12/25 08:15:29;;;;;;;21.67;9.65;;;7.30;99.90;;;;;;5056873;28;20093;-87
2021/12/25 08:18:00;;;;;;;26.58;10.63;;;7.40;99.90;;;;;;5036172;28;20031;-88
2021/12/25 08:20:26;;;;;;;23.77;10.75;;;7.40;99.90;;;;;;5029169;28;20043;-88
2021/12/25 08:22:52;;;;;;;29.60;10.88;;;7.50;99.90;;;;;;5046589;28;20056;-87
2021/12/25 08:25:18;;;;;;;21.73;10.40;;;7.50;99.90;;;;;;5051671;28;20102;-87
2021/12/25 08:27:46;;;;;;;25.92;10.88;;;7.50;99.90;;;;;;5036213;28;20032;-87
2021/12/25 08:30:15;;;;;;;25.60;11.25;;;7.50;99.90;;;;;;5036984;28;20036;-87
2021/12/25 08:32:42;;;;;;;21.25;10.13;;;7.60;99.90;;;;;;5042799;28;20101;-87
2021/12/25 08:35:10;;;;;;;25.25;10.57;;;7.50;99.90;;;;;;5054851;28;20042;-88
2021/12/25 08:37:35;;;;;;;23.88;10.15;;;7.50;99.90;;;;;;5067010;28;20016;-88
2021/12/25 08:40:02;;;;;;;18.35;8.77;;;7.60;99.90;;;;;;5042401;28;20033;-87
2021/12/25 08:42:31;;;;;;;24.30;9.65;;;7.60;99.90;;;;;;5046378;28;20073;-87
2021/12/25 08:47:32;;;;;;;20.00;9.63;;;7.60;99.90;;;;;;5036900;28;20035;-88
2021/12/25 08:49:58;;;;;;;19.05;9.18;;;7.60;99.90;;;;;;5032537;28;20124;-88
2021/12/25 08:52:25;;;;;;;19.80;9.10;;;7.60;99.90;;;;;;5003186;28;20075;-87
2021/12/25 08:54:52;;;;;;;19.88;9.00;;;7.60;99.90;;;;;;5033424;28;20017;-88
2021/12/25 08:57:20;;;;;;;23.27;10.20;;;7.70;99.90;;;;;;5032940;28;20074;-87
2021/12/25 08:59:46;;;;;;;20.95;9.50;;;7.70;99.90;;;;;;5036991;28;20032;-87
2021/12/25 09:02:16;;;;;;;23.38;9.00;;;7.70;99.90;;;;;;5068588;28;20020;-87
2021/12/25 09:04:45;;;;;;;20.52;10.38;;;7.70;99.90;;;;;;5035696;28;20029;-87
2021/12/25 09:07:11;;;;;;;23.17;9.23;;;7.70;99.90;;;;;;5067695;28;20051;-87
2021/12/25 09:09:37;;;;;;;19.88;9.98;;;7.70;99.90;;;;;;5022135;28;20033;-87
2021/12/25 09:12:04;;;;;;;20.45;9.20;;;7.70;99.90;;;;;;5015500;28;20136;-87
2021/12/25 09:14:30;;;;;;;25.08;9.82;;;7.80;99.90;;;;;;5043750;28;20709;-87
2021/12/25 09:16:56;;;;;;;18.40;8.07;;;7.70;99.90;;;;;;5065185;28;20040;-87
2021/12/25 09:19:22;;;;;;;19.80;8.70;;;7.70;99.90;;;;;;5033513;28;20037;-87
2021/12/25 09:21:51;;;;;;;20.13;8.93;;;7.70;99.90;;;;;;5051713;28;20393;-86
2021/12/25 09:24:16;;;;;;;18.08;8.90;;;7.70;99.90;;;;;;5047362;28;20044;-87
2021/12/25 09:26:43;;;;;;;20.73;9.48;;;7.70;99.90;;;;;;5046565;28;20037;-87
2021/12/25 09:29:09;;;;;;;19.77;8.50;;;7.70;99.90;;;;;;5031759;28;20029;-88
2021/12/25 09:31:35;;;;;;;18.80;9.77;;;7.70;99.90;;;;;;5051331;28;20027;-87
2021/12/25 09:34:01;;;;;;;18.60;8.63;;;7.70;99.90;;;;;;5039820;28;20401;-88
2021/12/25 09:36:27;;;;;;;18.98;8.57;;;7.70;99.90;;;;;;5048210;28;20029;-88
2021/12/25 09:38:53;;;;;;;20.33;8.85;;;7.70;99.90;;;;;;5075244;28;20039;-87
2021/12/25 09:41:19;;;;;;;19.05;9.60;;;7.70;99.90;;;;;;5048841;28;20056;-87
2021/12/25 09:43:47;;;;;;;16.98;8.07;;;7.70;99.90;;;;;;5048536;28;20056;-87
2021/12/25 09:46:14;;;;;;;20.25;8.65;;;7.70;99.90;;;;;;5047058;28;20025;-87
2021/12/25 09:48:40;;;;;;;17.23;8.75;;;7.70;99.90;;;;;;5031572;28;20051;-88
2021/12/25 09:51:06;;;;;;;15.60;8.55;;;7.70;99.90;;;;;;5068419;28;20513;-87
2021/12/25 09:53:32;;;;;;;18.98;9.23;;;7.80;99.90;;;;;;5055363;28;20085;-88
2021/12/25 09:55:58;;;;;;;20.65;9.20;;;7.70;99.90;;;;;;5035708;28;20025;-87
2021/12/25 09:58:24;;;;;;;23.92;9.02;;;7.80;99.90;;;;;;5026213;28;20032;-87
2021/12/25 10:00:54;;;;;;;21.13;9.07;;;7.80;99.90;;;;;;5072550;28;20434;-87
2021/12/25 10:03:20;;;;;;;15.73;7.63;;;7.80;99.90;;;;;;5072557;28;20119;-88
2021/12/25 10:05:51;;;;;;;17.38;8.60;;;7.90;99.90;;;;;;5062642;28;20038;-86
2021/12/25 10:08:21;;;;;;;14.27;8.00;;;7.90;99.90;;;;;;5065902;28;20029;-87
2021/12/25 10:10:56;;;;;;;17.45;8.55;;;8.00;99.90;;;;;;5036433;28;20039;-87
2021/12/25 10:13:31;;;;;;;16.92;8.18;;;8.00;99.90;;;;;;5053653;28;20409;-87
2021/12/25 10:16:24;;;;;;;15.05;8.05;;;8.00;99.90;;;;;;5019747;28;20032;-87
2021/12/25 10:18:51;;;;;;;15.50;7.57;;;8.00;99.90;;;;;;5062023;28;20115;-87
2021/12/25 10:21:20;;;;;;;14.23;8.02;;;8.10;99.90;;;;;;5080331;28;20782;-86
2021/12/25 10:24:04;;;;;;;20.77;9.05;;;8.10;99.90;;;;;;5080427;28;20028;-86
2021/12/25 10:26:30;;;;;;;19.20;9.57;;;8.10;99.90;;;;;;5080504;28;20034;-86
2021/12/25 10:28:56;;;;;;;17.70;9.57;;;8.10;99.90;;;;;;5066399;28;20265;-86
2021/12/25 10:31:33;;;;;;;16.58;8.65;;;8.10;99.90;;;;;;5065464;28;20032;-86
2021/12/25 10:33:59;;;;;;;18.00;8.77;;;8.20;99.90;;;;;;5031048;28;20041;-86
2021/12/25 10:36:34;;;;;;;19.15;9.27;;;8.20;99.90;;;;;;5048199;28;20646;-86
2021/12/25 10:39:04;;;;;;;17.35;8.77;;;8.20;99.90;;;;;;5073183;28;20671;-86
2021/12/25 10:41:30;;;;;;;18.50;8.60;;;8.20;99.90;;;;;;5054682;28;20036;-86
2021/12/25 10:44:10;;;;;;;16.77;8.70;;;8.20;99.90;;;;;;5034524;28;20033;-86
2021/12/25 10:47:01;;;;;;;17.70;9.15;;;8.20;99.90;;;;;;5044005;28;20047;-86
2021/12/25 10:49:41;;;;;;;19.52;9.30;;;8.20;99.90;;;;;;5070983;28;20094;-87
2021/12/25 10:52:26;;;;;;;18.50;9.17;;;8.20;99.90;;;;;;5038585;28;20063;-87
2021/12/25 10:54:56;;;;;;;17.63;8.70;;;8.20;99.90;;;;;;5051094;28;20729;-87
2021/12/25 10:57:40;;;;;;;18.88;9.05;;;8.30;99.90;;;;;;5035376;28;20028;-87
2021/12/25 11:00:21;;;;;;;17.85;8.70;;;8.30;99.90;;;;;;5053046;28;20414;-87
2021/12/25 11:02:52;;;;;;;20.02;9.23;;;8.40;99.90;;;;;;5054611;28;20028;-86
2021/12/25 11:05:18;;;;;;;18.65;8.43;;;8.40;99.90;;;;;;5034737;28;20044;-86
2021/12/25 11:07:45;;;;;;;19.48;9.85;;;8.40;99.90;;;;;;5036991;28;20025;-87
2021/12/25 11:10:17;;;;;;;14.88;8.18;;;8.50;99.90;;;;;;5046896;28;20545;-86
2021/12/25 11:12:43;;;;;;;15.95;8.25;;;8.50;99.90;;;;;;5037318;28;20538;-90
2021/12/25 11:15:14;;;;;;;17.33;8.65;;;8.50;99.90;;;;;;5046062;28;20043;-86
2021/12/25 11:17:40;;;;;;;;;;;8.60;99.90;;;;;;5039894;28;20083;-85
2021/12/25 11:20:21;;;;;;;14.27;6.95;;;8.60;99.90;;;;;;5041152;28;20281;-87
2021/12/25 11:22:53;;;;;;;19.67;8.98;;;8.70;99.90;;;;;;5058349;28;20033;-87
2021/12/25 11:25:23;;;;;;;20.95;9.52;;;8.70;99.90;;;;;;5034116;28;20393;-87
2021/12/25 11:27:50;;;;;;;21.87;10.40;;;8.80;99.90;;;;;;5033967;28;20535;-86
2021/12/25 11:30:18;;;;;;;21.45;10.43;;;8.80;99.90;;;;;;5060676;28;20280;-85
2021/12/25 11:32:45;;;;;;;17.45;9.65;;;8.90;99.90;;;;;;5031509;28;20502;-86
2021/12/25 11:35:13;;;;;;;15.07;8.45;;;8.90;99.90;;;;;;5042902;28;20028;-87
2021/12/25 11:37:38;;;;;;;15.40;7.95;;;8.90;99.90;;;;;;5037574;28;20066;-85
2021/12/25 11:40:08;;;;;;;11.50;6.97;;;8.90;99.90;;;;;;5022407;28;20057;-86
2021/12/25 11:42:39;;;;;;;13.20;5.47;;;8.70;99.90;;;;;;5042307;28;20039;-86
2021/12/25 11:45:28;;;;;;;9.85;4.80;;;8.50;99.90;;;;;;5042823;28;20033;-86
2021/12/25 11:47:59;;;;;;;7.43;4.20;;;8.20;99.90;;;;;;5019543;28;20040;-86
2021/12/25 11:50:30;;;;;;;8.15;4.93;;;8.00;99.90;;;;;;5041379;28;20083;-86
2021/12/25 11:53:26;;;;;;;7.07;4.03;;;7.80;99.90;;;;;;5045129;28;20036;-85
2021/12/25 11:58:45;;;;;;;6.05;3.95;;;7.30;99.90;;;;;;5061532;28;20075;-86
2021/12/25 12:01:38;;;;;;;6.82;3.75;;;6.90;99.90;;;;;;5037066;28;20132;-86
2021/12/25 12:04:10;;;;;;;6.30;3.53;;;6.70;99.90;;;;;;5034454;28;20025;-85
2021/12/25 12:06:47;;;;;;;4.78;2.90;;;6.60;99.90;;;;;;5033753;28;20040;-85
2021/12/25 12:09:21;;;;;;;4.50;2.60;;;6.40;99.90;;;;;;5060974;28;20101;-86
2021/12/25 12:12:07;;;;;;;3.88;2.30;;;6.20;99.90;;;;;;5038843;28;20048;-85
2021/12/25 12:14:33;;;;;;;4.18;2.60;;;6.00;99.90;;;;;;5051949;28;20037;-86
2021/12/25 12:17:01;;;;;;;3.50;2.22;;;5.90;99.90;;;;;;5038173;28;20021;-86
2021/12/25 12:19:30;;;;;;;9.40;2.65;;;5.70;99.90;;;;;;5060801;28;20509;-86
2021/12/25 12:22:00;;;;;;;8.57;3.30;;;5.70;99.90;;;;;;5052747;28;20036;-86
2021/12/25 12:24:43;;;;;;;4.45;2.15;;;5.70;99.90;;;;;;5052318;23;20044;-85
2021/12/25 12:27:10;;;;;;;3.20;2.15;;;5.60;99.90;;;;;;5032303;28;20098;-85
2021/12/25 12:29:51;;;;;;;3.63;2.28;;;5.60;99.90;;;;;;5026816;28;20059;-85
2021/12/25 12:32:20;;;;;;;3.40;2.13;;;5.50;99.90;;;;;;5041364;28;20491;-86
2021/12/25 12:34:47;;;;;;;3.85;2.05;;;5.50;99.90;;;;;;5041971;28;20028;-86
2021/12/25 12:37:24;;;;;;;4.22;2.40;;;5.40;99.90;;;;;;5032835;28;20021;-85
2021/12/25 12:39:54;;;;;;;3.28;2.10;;;5.30;99.90;;;;;;5022845;28;20095;-85
2021/12/25 12:42:21;;;;;;;4.43;2.00;;;5.30;99.90;;;;;;5036319;28;20033;-85
2021/12/25 12:44:49;;;;;;;4.63;2.05;;;5.30;99.90;;;;;;5013101;28;20033;-85
2021/12/25 12:47:19;;;;;;;3.15;2.17;;;5.20;99.90;;;;;;5011971;28;20057;-86
2021/12/25 12:49:45;;;;;;;3.78;2.42;;;5.20;99.90;;;;;;5028494;28;20040;-85
2021/12/25 12:52:19;;;;;;;2.97;2.00;;;5.10;99.90;;;;;;5015973;28;20028;-85
2021/12/25 12:54:54;;;;;;;3.88;2.58;;;5.10;99.90;;;;;;5000920;28;20068;-84
2021/12/25 12:57:34;;;;;;;3.40;2.20;;;5.10;99.90;;;;;;5044828;28;20627;-84
2021/12/25 13:00:22;;;;;;;4.45;2.50;;;5.10;99.90;;;;;;5029859;28;20029;-84
2021/12/25 13:02:57;;;;;;;2.95;2.00;;;5.00;99.90;;;;;;5021051;28;20036;-86
2021/12/25 13:05:28;;;;;;;3.58;2.17;;;5.10;99.90;;;;;;5032902;28;20392;-86
2021/12/25 13:07:56;;;;;;;3.13;2.10;;;5.00;99.90;;;;;;4997341;28;20323;-85
2021/12/25 13:10:35;;;;;;;2.55;1.85;;;5.00;99.90;;;;;;5015311;28;20029;-86
2021/12/25 13:13:23;;;;;;;3.63;2.20;;;5.00;99.90;;;;;;5018576;28;20029;-86
2021/12/25 13:16:07;;;;;;;3.90;2.33;;;4.90;99.90;;;;;;5031578;28;20037;-86
2021/12/25 13:18:37;;;;;;;3.13;2.03;;;4.90;99.90;;;;;;5019172;28;20033;-85
2021/12/25 13:21:08;;;;;;;3.90;2.58;;;4.90;99.90;;;;;;5018776;28;20030;-86
2021/12/25 13:23:38;;;;;;;3.90;2.25;;;4.70;99.90;;;;;;5046000;28;20102;-86
2021/12/25 13:26:06;;;;;;;3.20;2.03;;;4.70;99.90;;;;;;5010948;28;20095;-86
2021/12/25 13:28:35;;;;;;;4.28;2.63;;;4.60;99.90;;;;;;5035017;28;20373;-85
2021/12/25 13:31:06;;;;;;;3.05;2.30;;;4.60;99.90;;;;;;5001498;28;20033;-85
2021/12/25 13:33:36;;;;;;;5.18;3.22;;;4.60;99.90;;;;;;5035449;28;20351;-85
2021/12/25 13:36:08;;;;;;;4.70;2.97;;;4.50;99.90;;;;;;5011371;28;20482;-86
2021/12/25 13:38:57;;;;;;;4.00;2.28;;;4.60;99.90;;;;;;5033827;28;20025;-86
2021/12/25 13:41:45;;;;;;;4.10;2.78;;;4.60;99.90;;;;;;5033190;28;20025;-85
2021/12/25 13:44:24;;;;;;;3.72;2.33;;;4.60;99.90;;;;;;5019340;28;20466;-85
2021/12/25 13:46:59;;;;;;;5.23;2.37;;;4.60;99.90;;;;;;5028751;28;20037;-86
2021/12/25 13:49:35;;;;;;;5.40;2.58;;;4.50;99.90;;;;;;5014387;28;20376;-85
2021/12/25 13:52:28;;;;;;;3.85;2.53;;;4.50;99.90;;;;;;5024853;28;20033;-86
2021/12/25 13:55:23;;;;;;;4.55;2.55;;;4.40;99.90;;;;;;5002429;28;20030;-85
2021/12/25 13:57:52;;;;;;;5.53;3.33;;;4.30;99.90;;;;;;5029126;28;20040;-86
2021/12/25 14:00:24;;;;;;;4.97;3.25;;;4.20;99.90;;;;;;5020338;28;20123;-86
2021/12/25 14:02:59;;;;;;;12.20;3.50;;;4.10;99.90;;;;;;5005527;28;20038;-86
2021/12/25 14:05:27;;;;;;;5.65;3.40;;;4.00;99.90;;;;;;5004476;28;20103;-84
2021/12/25 14:07:53;;;;;;;8.00;4.70;;;3.90;99.90;;;;;;5013038;28;20053;-86
2021/12/25 14:10:25;;;;;;;6.63;3.97;;;3.90;99.90;;;;;;5015598;28;20065;-86
2021/12/25 14:12:57;;;;;;;6.55;3.90;;;3.90;99.90;;;;;;5033844;28;20067;-84
2021/12/25 14:15:27;;;;;;;6.32;3.92;;;4.00;99.90;;;;;;5014349;28;20049;-85
2021/12/25 14:17:53;;;;;;;6.22;3.90;;;4.00;99.90;;;;;;5053770;28;20022;-86
2021/12/25 14:20:25;;;;;;;6.80;4.15;;;4.00;99.90;;;;;;5032973;28;20086;-86